Terminal Aerodrome Forecast
Issued by NWS Albany, NY

Home | Current Version | Previous Version | Text Only | Print | Product List | Glossary On
Versions: 1 2 3 4 5 6 7 8 9 10 11 12 13 14 15 16 17 18
000
FTUS41 KALY 040538
TAFPOU
TAF
KPOU 040538Z 0406/0506 00000KT P6SM VCSH SCT050 BKN120 BKN250
     FM040900 VRB03KT 5SM BR SCT050 SCT100
     FM041200 23005KT P6SM SCT050 SCT100
     FM041600 25008G18KT P6SM SCT050 SCT100
     FM042100 27010KT P6SM BKN050 BKN100 PROB30 0421/0424 4SM -TSRA
      BR SCT025CB BKN050
     FM050000 29005KT P6SM SCT050 SCT100=

USA.gov is the U.S. government's official web portal to all federal, state and local government web resources and services.